sensor_id;sensor_type;location;lat;lon;timestamp;P1;durP1;ratioP1;P2;durP2;ratioP2
57826;SDS011;43656;57.746;11.780;2024-02-21T00:01:25;62.97;;;8.75;;
57826;SDS011;43656;57.746;11.780;2024-02-21T00:03:51;55.83;;;7.70;;
57826;SDS011;43656;57.746;11.780;2024-02-21T00:06:16;49.78;;;8.77;;
57826;SDS011;43656;57.746;11.780;2024-02-21T00:08:41;62.22;;;9.07;;
57826;SDS011;43656;57.746;11.780;2024-02-21T00:11:07;72.10;;;8.35;;
57826;SDS011;43656;57.746;11.780;2024-02-21T00:13:32;57.60;;;8.80;;
57826;SDS011;43656;57.746;11.780;2024-02-21T00:15:59;51.50;;;7.55;;
57826;SDS011;43656;57.746;11.780;2024-02-21T00:18:26;62.85;;;8.43;;
57826;SDS011;43656;57.746;11.780;2024-02-21T00:20:52;73.78;;;9.00;;
57826;SDS011;43656;57.746;11.780;2024-02-21T00:23:18;66.28;;;9.35;;
57826;SDS011;43656;57.746;11.780;2024-02-21T00:25:43;65.10;;;8.77;;
57826;SDS011;43656;57.746;11.780;2024-02-21T00:28:09;65.32;;;9.02;;
57826;SDS011;43656;57.746;11.780;2024-02-21T00:30:34;60.83;;;9.13;;
57826;SDS011;43656;57.746;11.780;2024-02-21T00:33:00;63.15;;;9.45;;
57826;SDS011;43656;57.746;11.780;2024-02-21T00:35:25;65.05;;;8.85;;
57826;SDS011;43656;57.746;11.780;2024-02-21T00:37:51;68.97;;;8.75;;
57826;SDS011;43656;57.746;11.780;2024-02-21T00:40:16;64.22;;;9.02;;
57826;SDS011;43656;57.746;11.780;2024-02-21T00:42:45;64.25;;;9.23;;
57826;SDS011;43656;57.746;11.780;2024-02-21T00:45:13;66.95;;;9.38;;
57826;SDS011;43656;57.746;11.780;2024-02-21T00:47:39;66.97;;;9.38;;
57826;SDS011;43656;57.746;11.780;2024-02-21T00:50:04;68.35;;;9.07;;
57826;SDS011;43656;57.746;11.780;2024-02-21T00:52:32;64.20;;;9.23;;
57826;SDS011;43656;57.746;11.780;2024-02-21T00:54:57;62.88;;;9.50;;
57826;SDS011;43656;57.746;11.780;2024-02-21T00:57:22;67.93;;;9.88;;
57826;SDS011;43656;57.746;11.780;2024-02-21T00:59:48;59.70;;;9.18;;
57826;SDS011;43656;57.746;11.780;2024-02-21T01:02:14;68.35;;;8.75;;
57826;SDS011;43656;57.746;11.780;2024-02-21T01:04:39;73.55;;;9.63;;
57826;SDS011;43656;57.746;11.780;2024-02-21T01:07:05;67.38;;;9.55;;
57826;SDS011;43656;57.746;11.780;2024-02-21T01:09:30;68.97;;;9.18;;
57826;SDS011;43656;57.746;11.780;2024-02-21T01:11:55;63.85;;;8.98;;
57826;SDS011;43656;57.746;11.780;2024-02-21T01:14:21;53.45;;;8.80;;
57826;SDS011;43656;57.746;11.780;2024-02-21T01:16:46;60.95;;;8.52;;
57826;SDS011;43656;57.746;11.780;2024-02-21T01:19:12;76.97;;;9.48;;
57826;SDS011;43656;57.746;11.780;2024-02-21T01:21:37;71.07;;;9.27;;
57826;SDS011;43656;57.746;11.780;2024-02-21T01:24:02;74.20;;;10.18;;
57826;SDS011;43656;57.746;11.780;2024-02-21T01:26:28;56.38;;;8.15;;
57826;SDS011;43656;57.746;11.780;2024-02-21T01:28:53;67.05;;;8.93;;
57826;SDS011;43656;57.746;11.780;2024-02-21T01:31:19;63.47;;;9.25;;
57826;SDS011;43656;57.746;11.780;2024-02-21T01:33:45;51.28;;;8.25;;
57826;SDS011;43656;57.746;11.780;2024-02-21T01:36:10;43.78;;;7.70;;
57826;SDS011;43656;57.746;11.780;2024-02-21T01:38:36;49.15;;;7.82;;
57826;SDS011;43656;57.746;11.780;2024-02-21T01:41:01;45.80;;;7.47;;
57826;SDS011;43656;57.746;11.780;2024-02-21T01:43:26;49.03;;;8.60;;
57826;SDS011;43656;57.746;11.780;2024-02-21T01:45:53;53.78;;;7.90;;
57826;SDS011;43656;57.746;11.780;2024-02-21T01:48:24;45.05;;;7.57;;
57826;SDS011;43656;57.746;11.780;2024-02-21T01:50:50;40.25;;;6.72;;
57826;SDS011;43656;57.746;11.780;2024-02-21T01:53:19;40.63;;;7.45;;
57826;SDS011;43656;57.746;11.780;2024-02-21T01:55:46;43.53;;;7.35;;
57826;SDS011;43656;57.746;11.780;2024-02-21T01:58:13;41.08;;;7.15;;
57826;SDS011;43656;57.746;11.780;2024-02-21T02:00:44;31.45;;;6.55;;
57826;SDS011;43656;57.746;11.780;2024-02-21T02:03:11;35.13;;;6.72;;
57826;SDS011;43656;57.746;11.780;2024-02-21T02:05:45;30.08;;;6.15;;
57826;SDS011;43656;57.746;11.780;2024-02-21T02:08:15;42.03;;;7.47;;
57826;SDS011;43656;57.746;11.780;2024-02-21T02:10:41;34.05;;;7.30;;
57826;SDS011;43656;57.746;11.780;2024-02-21T02:13:07;42.97;;;8.30;;
57826;SDS011;43656;57.746;11.780;2024-02-21T02:18:05;59.42;;;10.07;;
57826;SDS011;43656;57.746;11.780;2024-02-21T02:20:30;51.50;;;9.07;;
57826;SDS011;43656;57.746;11.780;2024-02-21T02:22:56;45.00;;;8.50;;
57826;SDS011;43656;57.746;11.780;2024-02-21T02:25:24;50.58;;;8.57;;
57826;SDS011;43656;57.746;11.780;2024-02-21T02:27:51;59.17;;;8.85;;
57826;SDS011;43656;57.746;11.780;2024-02-21T02:30:17;70.18;;;9.40;;
57826;SDS011;43656;57.746;11.780;2024-02-21T02:32:46;70.45;;;9.18;;
57826;SDS011;43656;57.746;11.780;2024-02-21T02:35:12;77.57;;;9.35;;
57826;SDS011;43656;57.746;11.780;2024-02-21T02:37:37;82.13;;;9.68;;
57826;SDS011;43656;57.746;11.780;2024-02-21T02:40:06;88.15;;;9.30;;
57826;SDS011;43656;57.746;11.780;2024-02-21T02:42:32;61.70;;;8.57;;
57826;SDS011;43656;57.746;11.780;2024-02-21T02:44:58;47.05;;;7.95;;
57826;SDS011;43656;57.746;11.780;2024-02-21T02:47:23;55.05;;;7.75;;
57826;SDS011;43656;57.746;11.780;2024-02-21T02:49:48;37.85;;;7.47;;
57826;SDS011;43656;57.746;11.780;2024-02-21T02:52:16;40.47;;;7.00;;
57826;SDS011;43656;57.746;11.780;2024-02-21T02:54:42;40.90;;;7.57;;
57826;SDS011;43656;57.746;11.780;2024-02-21T02:57:08;40.08;;;7.47;;
57826;SDS011;43656;57.746;11.780;2024-02-21T02:59:34;34.42;;;7.63;;
57826;SDS011;43656;57.746;11.780;2024-02-21T03:01:59;43.03;;;7.07;;
57826;SDS011;43656;57.746;11.780;2024-02-21T03:04:24;38.90;;;7.03;;
57826;SDS011;43656;57.746;11.780;2024-02-21T03:06:50;39.65;;;7.95;;
57826;SDS011;43656;57.746;11.780;2024-02-21T03:09:15;38.25;;;8.25;;
57826;SDS011;43656;57.746;11.780;2024-02-21T03:11:42;29.88;;;7.88;;
57826;SDS011;43656;57.746;11.780;2024-02-21T03:14:09;33.92;;;8.18;;
57826;SDS011;43656;57.746;11.780;2024-02-21T03:16:36;31.90;;;6.40;;
57826;SDS011;43656;57.746;11.780;2024-02-21T03:19:01;31.35;;;6.80;;
57826;SDS011;43656;57.746;11.780;2024-02-21T03:21:27;38.40;;;7.57;;
57826;SDS011;43656;57.746;11.780;2024-02-21T03:23:52;29.95;;;7.13;;
57826;SDS011;43656;57.746;11.780;2024-02-21T03:26:18;25.13;;;6.65;;
57826;SDS011;43656;57.746;11.780;2024-02-21T03:28:44;29.70;;;6.43;;
57826;SDS011;43656;57.746;11.780;2024-02-21T03:31:11;21.98;;;5.75;;
57826;SDS011;43656;57.746;11.780;2024-02-21T03:33:42;20.17;;;6.07;;
57826;SDS011;43656;57.746;11.780;2024-02-21T03:36:15;23.73;;;5.60;;
57826;SDS011;43656;57.746;11.780;2024-02-21T03:38:40;29.45;;;5.55;;
57826;SDS011;43656;57.746;11.780;2024-02-21T03:41:06;19.30;;;4.68;;
57826;SDS011;43656;57.746;11.780;2024-02-21T03:43:31;25.95;;;5.20;;
57826;SDS011;43656;57.746;11.780;2024-02-21T03:45:58;16.55;;;4.40;;
57826;SDS011;43656;57.746;11.780;2024-02-21T03:48:24;17.17;;;3.88;;
57826;SDS011;43656;57.746;11.780;2024-02-21T03:50:49;17.98;;;4.22;;
57826;SDS011;43656;57.746;11.780;2024-02-21T03:53:15;13.32;;;3.70;;
57826;SDS011;43656;57.746;11.780;2024-02-21T03:55:40;16.42;;;4.10;;
57826;SDS011;43656;57.746;11.780;2024-02-21T03:58:05;13.77;;;3.80;;
57826;SDS011;43656;57.746;11.780;2024-02-21T04:00:31;18.50;;;3.45;;
57826;SDS011;43656;57.746;11.780;2024-02-21T04:02:56;10.15;;;3.08;;
57826;SDS011;43656;57.746;11.780;2024-02-21T04:05:22;16.02;;;3.50;;
57826;SDS011;43656;57.746;11.780;2024-02-21T04:07:47;14.48;;;3.60;;
57826;SDS011;43656;57.746;11.780;2024-02-21T04:10:13;19.27;;;3.42;;
57826;SDS011;43656;57.746;11.780;2024-02-21T04:12:38;12.43;;;3.38;;
57826;SDS011;43656;57.746;11.780;2024-02-21T04:20:32;12.17;;;3.23;;
57826;SDS011;43656;57.746;11.780;2024-02-21T04:22:59;13.18;;;3.60;;
57826;SDS011;43656;57.746;11.780;2024-02-21T04:25:24;13.43;;;3.70;;
57826;SDS011;43656;57.746;11.780;2024-02-21T04:27:50;15.45;;;3.97;;
57826;SDS011;43656;57.746;11.780;2024-02-21T04:30:15;10.90;;;3.75;;
57826;SDS011;43656;57.746;11.780;2024-02-21T04:32:41;11.90;;;4.10;;
57826;SDS011;43656;57.746;11.780;2024-02-21T04:35:07;14.20;;;4.60;;
57826;SDS011;43656;57.746;11.780;2024-02-21T04:37:33;17.63;;;5.00;;
57826;SDS011;43656;57.746;11.780;2024-02-21T04:39:58;18.77;;;5.32;;
57826;SDS011;43656;57.746;11.780;2024-02-21T04:42:23;20.02;;;5.78;;
57826;SDS011;43656;57.746;11.780;2024-02-21T04:44:49;25.85;;;6.40;;
57826;SDS011;43656;57.746;11.780;2024-02-21T04:47:14;25.45;;;6.53;;
57826;SDS011;43656;57.746;11.780;2024-02-21T04:49:40;24.60;;;6.97;;
57826;SDS011;43656;57.746;11.780;2024-02-21T04:52:05;23.65;;;6.78;;
57826;SDS011;43656;57.746;11.780;2024-02-21T04:54:31;27.65;;;6.72;;
57826;SDS011;43656;57.746;11.780;2024-02-21T04:56:56;21.20;;;6.40;;
57826;SDS011;43656;57.746;11.780;2024-02-21T04:59:21;18.35;;;5.72;;
57826;SDS011;43656;57.746;11.780;2024-02-21T05:01:47;22.50;;;5.40;;
57826;SDS011;43656;57.746;11.780;2024-02-21T05:04:12;19.98;;;5.20;;
57826;SDS011;43656;57.746;11.780;2024-02-21T05:06:38;12.05;;;4.60;;
57826;SDS011;43656;57.746;11.780;2024-02-21T05:09:05;7.32;;;2.80;;
57826;SDS011;43656;57.746;11.780;2024-02-21T05:11:31;10.82;;;3.40;;
57826;SDS011;43656;57.746;11.780;2024-02-21T05:13:56;11.85;;;2.75;;
57826;SDS011;43656;57.746;11.780;2024-02-21T05:16:22;12.65;;;2.47;;
57826;SDS011;43656;57.746;11.780;2024-02-21T05:18:47;9.90;;;2.28;;
57826;SDS011;43656;57.746;11.780;2024-02-21T05:21:13;11.10;;;2.17;;
57826;SDS011;43656;57.746;11.780;2024-02-21T05:23:38;12.32;;;2.38;;
57826;SDS011;43656;57.746;11.780;2024-02-21T05:26:04;15.38;;;2.50;;
57826;SDS011;43656;57.746;11.780;2024-02-21T05:28:31;16.02;;;2.47;;
57826;SDS011;43656;57.746;11.780;2024-02-21T05:30:56;18.13;;;2.25;;
57826;SDS011;43656;57.746;11.780;2024-02-21T05:33:21;11.55;;;1.83;;
57826;SDS011;43656;57.746;11.780;2024-02-21T05:35:47;13.05;;;1.75;;
57826;SDS011;43656;57.746;11.780;2024-02-21T05:38:13;14.40;;;1.95;;
57826;SDS011;43656;57.746;11.780;2024-02-21T05:40:40;16.98;;;1.77;;
57826;SDS011;43656;57.746;11.780;2024-02-21T05:43:06;9.57;;;1.40;;
57826;SDS011;43656;57.746;11.780;2024-02-21T05:45:32;15.05;;;1.58;;
57826;SDS011;43656;57.746;11.780;2024-02-21T05:47:58;22.00;;;2.00;;
57826;SDS011;43656;57.746;11.780;2024-02-21T05:50:23;20.75;;;1.85;;
57826;SDS011;43656;57.746;11.780;2024-02-21T05:52:52;20.55;;;2.00;;
57826;SDS011;43656;57.746;11.780;2024-02-21T05:55:18;12.10;;;1.45;;
57826;SDS011;43656;57.746;11.780;2024-02-21T05:57:44;12.95;;;1.83;;
57826;SDS011;43656;57.746;11.780;2024-02-21T06:00:09;17.58;;;2.47;;
57826;SDS011;43656;57.746;11.780;2024-02-21T06:02:35;20.67;;;2.10;;
57826;SDS011;43656;57.746;11.780;2024-02-21T06:05:00;20.13;;;2.42;;
57826;SDS011;43656;57.746;11.780;2024-02-21T06:07:26;18.45;;;2.10;;
57826;SDS011;43656;57.746;11.780;2024-02-21T06:09:51;16.30;;;2.45;;
57826;SDS011;43656;57.746;11.780;2024-02-21T06:12:17;21.80;;;1.85;;
57826;SDS011;43656;57.746;11.780;2024-02-21T06:14:42;15.73;;;2.05;;
57826;SDS011;43656;57.746;11.780;2024-02-21T06:17:08;11.52;;;1.50;;
57826;SDS011;43656;57.746;11.780;2024-02-21T06:19:33;14.15;;;1.42;;
57826;SDS011;43656;57.746;11.780;2024-02-21T06:21:59;15.95;;;1.58;;
57826;SDS011;43656;57.746;11.780;2024-02-21T06:24:25;14.15;;;1.98;;
57826;SDS011;43656;57.746;11.780;2024-02-21T06:26:51;10.20;;;1.70;;
57826;SDS011;43656;57.746;11.780;2024-02-21T06:29:16;7.82;;;1.10;;
57826;SDS011;43656;57.746;11.780;2024-02-21T06:31:42;10.15;;;1.30;;
57826;SDS011;43656;57.746;11.780;2024-02-21T06:34:07;6.88;;;1.02;;
57826;SDS011;43656;57.746;11.780;2024-02-21T06:36:33;7.10;;;1.13;;
57826;SDS011;43656;57.746;11.780;2024-02-21T06:38:59;8.90;;;1.30;;
57826;SDS011;43656;57.746;11.780;2024-02-21T06:41:24;5.88;;;1.00;;
57826;SDS011;43656;57.746;11.780;2024-02-21T06:43:50;10.43;;;1.55;;
57826;SDS011;43656;57.746;11.780;2024-02-21T06:48:58;7.63;;;1.35;;
57826;SDS011;43656;57.746;11.780;2024-02-21T06:51:25;10.52;;;1.50;;
57826;SDS011;43656;57.746;11.780;2024-02-21T06:53:50;8.23;;;1.75;;
57826;SDS011;43656;57.746;11.780;2024-02-21T06:56:16;8.88;;;1.55;;
57826;SDS011;43656;57.746;11.780;2024-02-21T06:58:41;7.03;;;1.05;;
57826;SDS011;43656;57.746;11.780;2024-02-21T07:01:07;5.53;;;1.30;;
57826;SDS011;43656;57.746;11.780;2024-02-21T07:03:34;9.68;;;1.85;;
57826;SDS011;43656;57.746;11.780;2024-02-21T07:05:59;8.13;;;1.30;;
57826;SDS011;43656;57.746;11.780;2024-02-21T07:08:26;5.20;;;1.20;;
57826;SDS011;43656;57.746;11.780;2024-02-21T07:10:51;7.13;;;1.08;;
57826;SDS011;43656;57.746;11.780;2024-02-21T07:13:16;8.00;;;1.20;;
57826;SDS011;43656;57.746;11.780;2024-02-21T07:15:42;8.30;;;1.35;;
57826;SDS011;43656;57.746;11.780;2024-02-21T07:18:08;9.75;;;1.15;;
57826;SDS011;43656;57.746;11.780;2024-02-21T07:20:33;7.13;;;1.33;;
57826;SDS011;43656;57.746;11.780;2024-02-21T07:23:01;7.45;;;0.98;;
57826;SDS011;43656;57.746;11.780;2024-02-21T07:25:27;6.88;;;1.15;;
57826;SDS011;43656;57.746;11.780;2024-02-21T07:27:52;5.60;;;1.00;;
57826;SDS011;43656;57.746;11.780;2024-02-21T07:30:18;6.20;;;1.10;;
57826;SDS011;43656;57.746;11.780;2024-02-21T07:32:43;8.10;;;1.00;;
57826;SDS011;43656;57.746;11.780;2024-02-21T07:35:09;4.40;;;0.68;;
57826;SDS011;43656;57.746;11.780;2024-02-21T07:37:36;3.45;;;0.95;;
57826;SDS011;43656;57.746;11.780;2024-02-21T07:40:03;4.93;;;0.80;;
57826;SDS011;43656;57.746;11.780;2024-02-21T07:42:32;5.57;;;0.70;;
57826;SDS011;43656;57.746;11.780;2024-02-21T07:44:57;9.93;;;1.33;;
57826;SDS011;43656;57.746;11.780;2024-02-21T07:47:23;8.52;;;1.00;;
57826;SDS011;43656;57.746;11.780;2024-02-21T07:49:49;12.18;;;1.13;;
57826;SDS011;43656;57.746;11.780;2024-02-21T07:52:14;4.50;;;0.80;;
57826;SDS011;43656;57.746;11.780;2024-02-21T07:54:40;5.97;;;1.30;;
57826;SDS011;43656;57.746;11.780;2024-02-21T07:57:06;11.82;;;1.17;;
57826;SDS011;43656;57.746;11.780;2024-02-21T07:59:32;8.68;;;1.25;;
57826;SDS011;43656;57.746;11.780;2024-02-21T08:01:57;9.07;;;1.55;;
57826;SDS011;43656;57.746;11.780;2024-02-21T08:04:23;10.07;;;1.48;;
57826;SDS011;43656;57.746;11.780;2024-02-21T08:06:53;9.13;;;1.48;;
57826;SDS011;43656;57.746;11.780;2024-02-21T08:09:20;17.70;;;2.17;;
57826;SDS011;43656;57.746;11.780;2024-02-21T08:11:47;13.90;;;1.67;;
57826;SDS011;43656;57.746;11.780;2024-02-21T08:14:12;15.77;;;1.60;;
57826;SDS011;43656;57.746;11.780;2024-02-21T08:16:41;20.13;;;2.17;;
57826;SDS011;43656;57.746;11.780;2024-02-21T08:19:06;17.13;;;2.00;;
57826;SDS011;43656;57.746;11.780;2024-02-21T08:21:32;35.78;;;2.47;;
57826;SDS011;43656;57.746;11.780;2024-02-21T08:23:57;46.58;;;2.70;;
57826;SDS011;43656;57.746;11.780;2024-02-21T08:26:22;37.63;;;2.55;;
57826;SDS011;43656;57.746;11.780;2024-02-21T08:28:48;40.78;;;2.60;;
57826;SDS011;43656;57.746;11.780;2024-02-21T08:31:20;37.63;;;2.40;;
57826;SDS011;43656;57.746;11.780;2024-02-21T08:33:45;20.67;;;2.00;;
57826;SDS011;43656;57.746;11.780;2024-02-21T08:36:20;27.75;;;2.45;;
57826;SDS011;43656;57.746;11.780;2024-02-21T08:38:45;97.50;;;5.25;;
57826;SDS011;43656;57.746;11.780;2024-02-21T08:41:11;81.63;;;4.18;;
57826;SDS011;43656;57.746;11.780;2024-02-21T08:43:37;30.00;;;2.35;;
57826;SDS011;43656;57.746;11.780;2024-02-21T08:46:03;228.13;;;8.57;;
57826;SDS011;43656;57.746;11.780;2024-02-21T08:48:29;89.65;;;4.03;;
57826;SDS011;43656;57.746;11.780;2024-02-21T08:50:54;108.47;;;5.75;;
57826;SDS011;43656;57.746;11.780;2024-02-21T08:53:20;135.18;;;6.53;;
57826;SDS011;43656;57.746;11.780;2024-02-21T08:55:45;100.55;;;4.68;;
57826;SDS011;43656;57.746;11.780;2024-02-21T08:58:11;88.55;;;4.38;;
57826;SDS011;43656;57.746;11.780;2024-02-21T09:00:36;68.85;;;3.63;;
57826;SDS011;43656;57.746;11.780;2024-02-21T09:03:02;59.58;;;3.28;;
57826;SDS011;43656;57.746;11.780;2024-02-21T09:05:28;95.00;;;4.00;;
57826;SDS011;43656;57.746;11.780;2024-02-21T09:07:53;85.30;;;4.20;;
57826;SDS011;43656;57.746;11.780;2024-02-21T09:10:19;95.68;;;3.95;;
57826;SDS011;43656;57.746;11.780;2024-02-21T09:12:45;60.22;;;3.33;;
57826;SDS011;43656;57.746;11.780;2024-02-21T09:15:10;457.75;;;19.38;;
57826;SDS011;43656;57.746;11.780;2024-02-21T09:17:36;300.33;;;15.05;;
57826;SDS011;43656;57.746;11.780;2024-02-21T09:20:01;267.15;;;11.80;;
57826;SDS011;43656;57.746;11.780;2024-02-21T09:22:28;228.27;;;9.27;;
57826;SDS011;43656;57.746;11.780;2024-02-21T09:24:54;58.20;;;3.20;;
57826;SDS011;43656;57.746;11.780;2024-02-21T09:27:20;141.05;;;5.47;;
57826;SDS011;43656;57.746;11.780;2024-02-21T09:29:45;183.30;;;7.97;;
57826;SDS011;43656;57.746;11.780;2024-02-21T09:32:11;81.55;;;4.40;;
57826;SDS011;43656;57.746;11.780;2024-02-21T09:34:37;173.07;;;7.05;;
57826;SDS011;43656;57.746;11.780;2024-02-21T09:37:02;147.43;;;6.85;;
57826;SDS011;43656;57.746;11.780;2024-02-21T09:39:28;117.05;;;6.05;;
57826;SDS011;43656;57.746;11.780;2024-02-21T09:41:56;180.65;;;7.82;;
57826;SDS011;43656;57.746;11.780;2024-02-21T09:44:33;123.97;;;5.53;;
57826;SDS011;43656;57.746;11.780;2024-02-21T09:47:24;120.95;;;4.22;;
57826;SDS011;43656;57.746;11.780;2024-02-21T09:50:04;132.05;;;5.43;;
57826;SDS011;43656;57.746;11.780;2024-02-21T09:52:30;30.00;;;2.50;;
57826;SDS011;43656;57.746;11.780;2024-02-21T09:54:58;30.65;;;2.00;;
57826;SDS011;43656;57.746;11.780;2024-02-21T09:57:24;46.28;;;2.88;;
57826;SDS011;43656;57.746;11.780;2024-02-21T09:59:50;22.30;;;2.10;;
57826;SDS011;43656;57.746;11.780;2024-02-21T10:02:17;18.92;;;1.92;;
57826;SDS011;43656;57.746;11.780;2024-02-21T10:04:43;44.97;;;2.15;;
57826;SDS011;43656;57.746;11.780;2024-02-21T10:07:08;24.58;;;1.85;;
57826;SDS011;43656;57.746;11.780;2024-02-21T10:09:34;19.25;;;1.80;;
57826;SDS011;43656;57.746;11.780;2024-02-21T10:12:09;61.58;;;3.30;;
57826;SDS011;43656;57.746;11.780;2024-02-21T10:14:35;74.55;;;3.25;;
57826;SDS011;43656;57.746;11.780;2024-02-21T10:17:01;9.23;;;1.02;;
57826;SDS011;43656;57.746;11.780;2024-02-21T10:19:27;97.32;;;4.22;;
57826;SDS011;43656;57.746;11.780;2024-02-21T10:22:03;73.80;;;3.58;;
57826;SDS011;43656;57.746;11.780;2024-02-21T10:24:30;64.10;;;3.90;;
57826;SDS011;43656;57.746;11.780;2024-02-21T10:27:01;110.55;;;5.40;;
57826;SDS011;43656;57.746;11.780;2024-02-21T10:29:30;59.35;;;3.63;;
57826;SDS011;43656;57.746;11.780;2024-02-21T10:32:09;156.18;;;6.93;;
57826;SDS011;43656;57.746;11.780;2024-02-21T10:34:39;149.30;;;5.97;;
57826;SDS011;43656;57.746;11.780;2024-02-21T10:37:14;65.07;;;3.72;;
57826;SDS011;43656;57.746;11.780;2024-02-21T10:39:40;86.03;;;4.95;;
57826;SDS011;43656;57.746;11.780;2024-02-21T10:42:06;195.10;;;6.72;;
57826;SDS011;43656;57.746;11.780;2024-02-21T10:44:35;93.18;;;4.03;;
57826;SDS011;43656;57.746;11.780;2024-02-21T10:47:11;86.45;;;6.93;;
57826;SDS011;43656;57.746;11.780;2024-02-21T10:49:41;17.27;;;4.43;;
57826;SDS011;43656;57.746;11.780;2024-02-21T10:52:27;18.55;;;3.97;;
57826;SDS011;43656;57.746;11.780;2024-02-21T10:57:53;14.25;;;2.78;;
57826;SDS011;43656;57.746;11.780;2024-02-21T11:00:19;12.10;;;1.88;;
57826;SDS011;43656;57.746;11.780;2024-02-21T11:02:46;18.15;;;3.75;;
57826;SDS011;43656;57.746;11.780;2024-02-21T11:05:14;11.63;;;3.10;;
57826;SDS011;43656;57.746;11.780;2024-02-21T11:07:40;15.40;;;3.50;;
57826;SDS011;43656;57.746;11.780;2024-02-21T11:10:19;13.07;;;3.45;;
57826;SDS011;43656;57.746;11.780;2024-02-21T11:12:47;21.58;;;5.05;;
57826;SDS011;43656;57.746;11.780;2024-02-21T11:15:13;18.15;;;5.63;;
57826;SDS011;43656;57.746;11.780;2024-02-21T11:17:38;26.60;;;7.03;;
57826;SDS011;43656;57.746;11.780;2024-02-21T11:20:10;21.30;;;7.13;;
57826;SDS011;43656;57.746;11.780;2024-02-21T11:22:42;21.75;;;7.10;;
57826;SDS011;43656;57.746;11.780;2024-02-21T11:25:09;23.65;;;7.28;;
57826;SDS011;43656;57.746;11.780;2024-02-21T11:27:37;24.15;;;7.25;;
57826;SDS011;43656;57.746;11.780;2024-02-21T11:30:04;17.50;;;6.65;;
57826;SDS011;43656;57.746;11.780;2024-02-21T11:32:30;21.17;;;7.60;;
57826;SDS011;43656;57.746;11.780;2024-02-21T11:34:56;21.65;;;6.93;;
57826;SDS011;43656;57.746;11.780;2024-02-21T11:37:27;17.48;;;4.75;;
57826;SDS011;43656;57.746;11.780;2024-02-21T11:39:58;14.85;;;4.95;;
57826;SDS011;43656;57.746;11.780;2024-02-21T11:42:26;15.90;;;4.35;;
57826;SDS011;43656;57.746;11.780;2024-02-21T11:44:52;15.73;;;4.57;;
57826;SDS011;43656;57.746;11.780;2024-02-21T11:47:18;20.10;;;4.75;;
57826;SDS011;43656;57.746;11.780;2024-02-21T11:49:47;13.93;;;4.40;;
57826;SDS011;43656;57.746;11.780;2024-02-21T11:52:15;21.77;;;5.47;;
57826;SDS011;43656;57.746;11.780;2024-02-21T11:54:41;13.20;;;4.28;;
57826;SDS011;43656;57.746;11.780;2024-02-21T11:57:07;16.85;;;3.95;;
57826;SDS011;43656;57.746;11.780;2024-02-21T11:59:33;12.18;;;4.18;;
57826;SDS011;43656;57.746;11.780;2024-02-21T12:02:00;14.00;;;4.38;;
57826;SDS011;43656;57.746;11.780;2024-02-21T12:04:26;13.32;;;4.35;;
57826;SDS011;43656;57.746;11.780;2024-02-21T12:06:52;16.65;;;4.18;;
57826;SDS011;43656;57.746;11.780;2024-02-21T12:09:18;12.60;;;4.22;;
57826;SDS011;43656;57.746;11.780;2024-02-21T12:11:44;10.45;;;4.00;;
57826;SDS011;43656;57.746;11.780;2024-02-21T12:14:15;13.60;;;4.60;;
57826;SDS011;43656;57.746;11.780;2024-02-21T12:16:41;15.30;;;4.82;;
57826;SDS011;43656;57.746;11.780;2024-02-21T12:19:10;16.27;;;5.05;;
57826;SDS011;43656;57.746;11.780;2024-02-21T12:21:36;19.13;;;5.28;;
57826;SDS011;43656;57.746;11.780;2024-02-21T12:24:14;15.82;;;5.10;;
57826;SDS011;43656;57.746;11.780;2024-02-21T12:26:42;16.05;;;5.25;;
57826;SDS011;43656;57.746;11.780;2024-02-21T12:29:08;12.48;;;4.57;;
57826;SDS011;43656;57.746;11.780;2024-02-21T12:31:40;15.35;;;5.18;;
57826;SDS011;43656;57.746;11.780;2024-02-21T12:34:05;13.40;;;4.28;;
57826;SDS011;43656;57.746;11.780;2024-02-21T12:36:31;16.20;;;4.82;;
57826;SDS011;43656;57.746;11.780;2024-02-21T12:38:58;10.88;;;4.68;;
57826;SDS011;43656;57.746;11.780;2024-02-21T12:41:24;17.00;;;5.20;;
57826;SDS011;43656;57.746;11.780;2024-02-21T12:43:51;12.43;;;4.65;;
57826;SDS011;43656;57.746;11.780;2024-02-21T12:46:17;14.15;;;5.00;;
57826;SDS011;43656;57.746;11.780;2024-02-21T12:48:43;17.17;;;5.78;;
57826;SDS011;43656;57.746;11.780;2024-02-21T12:51:08;15.18;;;6.10;;
57826;SDS011;43656;57.746;11.780;2024-02-21T12:53:33;13.85;;;5.75;;
57826;SDS011;43656;57.746;11.780;2024-02-21T12:55:59;13.45;;;5.50;;
57826;SDS011;43656;57.746;11.780;2024-02-21T12:58:25;12.60;;;5.85;;
57826;SDS011;43656;57.746;11.780;2024-02-21T13:00:50;12.40;;;5.38;;
57826;SDS011;43656;57.746;11.780;2024-02-21T13:03:15;19.45;;;6.38;;
57826;SDS011;43656;57.746;11.780;2024-02-21T13:05:41;23.95;;;7.35;;
57826;SDS011;43656;57.746;11.780;2024-02-21T13:08:06;29.55;;;8.23;;
57826;SDS011;43656;57.746;11.780;2024-02-21T13:10:32;27.92;;;8.98;;
57826;SDS011;43656;57.746;11.780;2024-02-21T13:12:59;21.58;;;8.25;;
57826;SDS011;43656;57.746;11.780;2024-02-21T13:15:27;28.67;;;8.52;;
57826;SDS011;43656;57.746;11.780;2024-02-21T13:17:53;26.80;;;8.48;;
57826;SDS011;43656;57.746;11.780;2024-02-21T13:20:19;24.55;;;7.60;;
57826;SDS011;43656;57.746;11.780;2024-02-21T13:22:45;18.60;;;6.07;;
57826;SDS011;43656;57.746;11.780;2024-02-21T13:25:11;39.13;;;6.57;;
57826;SDS011;43656;57.746;11.780;2024-02-21T13:27:40;21.42;;;6.65;;
57826;SDS011;43656;57.746;11.780;2024-02-21T13:30:05;63.22;;;7.07;;
57826;SDS011;43656;57.746;11.780;2024-02-21T13:32:33;48.63;;;6.70;;
57826;SDS011;43656;57.746;11.780;2024-02-21T13:34:59;29.70;;;7.10;;
57826;SDS011;43656;57.746;11.780;2024-02-21T13:37:26;25.98;;;5.70;;
57826;SDS011;43656;57.746;11.780;2024-02-21T13:39:52;39.25;;;7.72;;
57826;SDS011;43656;57.746;11.780;2024-02-21T13:42:18;17.83;;;5.82;;
57826;SDS011;43656;57.746;11.780;2024-02-21T13:44:44;15.88;;;5.50;;
57826;SDS011;43656;57.746;11.780;2024-02-21T13:47:09;13.18;;;4.60;;
57826;SDS011;43656;57.746;11.780;2024-02-21T13:49:36;17.45;;;3.88;;
57826;SDS011;43656;57.746;11.780;2024-02-21T13:52:01;12.10;;;3.58;;
57826;SDS011;43656;57.746;11.780;2024-02-21T13:54:27;11.45;;;2.90;;
57826;SDS011;43656;57.746;11.780;2024-02-21T13:56:52;11.77;;;2.85;;
57826;SDS011;43656;57.746;11.780;2024-02-21T13:59:18;8.70;;;2.75;;
57826;SDS011;43656;57.746;11.780;2024-02-21T14:01:43;10.20;;;2.10;;
57826;SDS011;43656;57.746;11.780;2024-02-21T14:04:09;15.02;;;2.45;;
57826;SDS011;43656;57.746;11.780;2024-02-21T14:06:34;13.85;;;2.35;;
57826;SDS011;43656;57.746;11.780;2024-02-21T14:09:00;9.23;;;2.03;;
57826;SDS011;43656;57.746;11.780;2024-02-21T14:11:26;14.13;;;2.17;;
57826;SDS011;43656;57.746;11.780;2024-02-21T14:13:52;13.05;;;1.90;;
57826;SDS011;43656;57.746;11.780;2024-02-21T14:16:17;16.13;;;2.28;;
57826;SDS011;43656;57.746;11.780;2024-02-21T14:18:43;20.52;;;2.30;;
57826;SDS011;43656;57.746;11.780;2024-02-21T14:21:08;14.50;;;2.15;;
57826;SDS011;43656;57.746;11.780;2024-02-21T14:23:36;13.70;;;1.88;;
57826;SDS011;43656;57.746;11.780;2024-02-21T14:26:02;15.82;;;2.20;;
57826;SDS011;43656;57.746;11.780;2024-02-21T14:28:28;17.38;;;1.80;;
57826;SDS011;43656;57.746;11.780;2024-02-21T14:30:53;26.05;;;2.97;;